sensor_id;sensor_type;location;lat;lon;timestamp;pressure;altitude;pressure_sealevel;temperature;humidity
71565;BME280;59397;50.952;14.502;2023-08-30T00:13:29;963.22;;;11.92;100.00
71565;BME280;59397;50.952;14.502;2023-08-30T00:33:03;962.95;;;11.61;100.00
71565;BME280;59397;50.952;14.502;2023-08-30T00:52:36;963.13;;;11.77;100.00
71565;BME280;59397;50.952;14.502;2023-08-30T01:12:13;962.89;;;11.77;100.00
71565;BME280;59397;50.952;14.502;2023-08-30T01:31:45;962.74;;;11.70;100.00
71565;BME280;59397;50.952;14.502;2023-08-30T01:51:18;962.60;;;11.87;100.00
71565;BME280;59397;50.952;14.502;2023-08-30T02:10:55;962.99;;;11.85;100.00
71565;BME280;59397;50.952;14.502;2023-08-30T02:30:27;962.98;;;11.71;100.00
71565;BME280;59397;50.952;14.502;2023-08-30T02:50:02;963.01;;;11.73;100.00
71565;BME280;59397;50.952;14.502;2023-08-30T03:09:35;962.94;;;11.85;100.00
71565;BME280;59397;50.952;14.502;2023-08-30T03:29:10;963.00;;;11.76;100.00
71565;BME280;59397;50.952;14.502;2023-08-30T03:48:44;963.14;;;11.62;100.00
71565;BME280;59397;50.952;14.502;2023-08-30T04:08:18;963.24;;;11.60;100.00
71565;BME280;59397;50.952;14.502;2023-08-30T04:27:53;963.07;;;11.50;100.00
71565;BME280;59397;50.952;14.502;2023-08-30T04:47:28;963.16;;;11.52;100.00
71565;BME280;59397;50.952;14.502;2023-08-30T05:07:00;963.27;;;11.49;100.00
71565;BME280;59397;50.952;14.502;2023-08-30T05:26:35;963.32;;;11.57;100.00
71565;BME280;59397;50.952;14.502;2023-08-30T05:46:09;963.36;;;11.61;100.00
71565;BME280;59397;50.952;14.502;2023-08-30T06:05:44;963.39;;;11.91;100.00
71565;BME280;59397;50.952;14.502;2023-08-30T06:25:18;963.42;;;11.76;100.00
71565;BME280;59397;50.952;14.502;2023-08-30T06:44:52;963.44;;;12.08;100.00
71565;BME280;59397;50.952;14.502;2023-08-30T07:04:25;963.69;;;12.17;100.00
71565;BME280;59397;50.952;14.502;2023-08-30T07:24:00;963.66;;;12.23;100.00
71565;BME280;59397;50.952;14.502;2023-08-30T07:43:36;963.64;;;12.69;100.00
71565;BME280;59397;50.952;14.502;2023-08-30T08:03:11;963.63;;;13.29;100.00
71565;BME280;59397;50.952;14.502;2023-08-30T08:22:45;963.58;;;13.66;100.00
71565;BME280;59397;50.952;14.502;2023-08-30T08:42:20;963.65;;;14.41;100.00
71565;BME280;59397;50.952;14.502;2023-08-30T09:01:53;963.80;;;13.59;100.00
71565;BME280;59397;50.952;14.502;2023-08-30T09:21:27;963.85;;;13.83;100.00
71565;BME280;59397;50.952;14.502;2023-08-30T09:41:05;963.85;;;14.22;100.00
71565;BME280;59397;50.952;14.502;2023-08-30T10:00:39;963.86;;;14.85;100.00
71565;BME280;59397;50.952;14.502;2023-08-30T10:20:16;963.85;;;15.13;100.00
71565;BME280;59397;50.952;14.502;2023-08-30T10:39:47;963.89;;;14.37;100.00
71565;BME280;59397;50.952;14.502;2023-08-30T10:59:27;963.85;;;15.81;100.00
71565;BME280;59397;50.952;14.502;2023-08-30T11:19:00;963.70;;;15.56;100.00
71565;BME280;59397;50.952;14.502;2023-08-30T11:38:37;963.61;;;15.80;95.93
71565;BME280;59397;50.952;14.502;2023-08-30T11:58:12;963.51;;;16.14;97.32
71565;BME280;59397;50.952;14.502;2023-08-30T12:17:45;963.44;;;16.05;90.46
71565;BME280;59397;50.952;14.502;2023-08-30T12:37:20;963.31;;;16.51;92.88
71565;BME280;59397;50.952;14.502;2023-08-30T12:56:53;963.34;;;16.56;90.49
71565;BME280;59397;50.952;14.502;2023-08-30T13:16:29;963.33;;;17.18;85.99
71565;BME280;59397;50.952;14.502;2023-08-30T13:36:02;963.26;;;17.09;86.13
71565;BME280;59397;50.952;14.502;2023-08-30T13:55:36;963.17;;;17.20;84.21
71565;BME280;59397;50.952;14.502;2023-08-30T14:15:09;963.13;;;16.53;86.33
71565;BME280;59397;50.952;14.502;2023-08-30T14:34:46;963.14;;;17.37;85.09
71565;BME280;59397;50.952;14.502;2023-08-30T14:54:23;962.94;;;17.89;79.80
71565;BME280;59397;50.952;14.502;2023-08-30T15:13:54;962.89;;;17.46;83.66
71565;BME280;59397;50.952;14.502;2023-08-30T15:33:26;963.05;;;16.85;89.76
71565;BME280;59397;50.952;14.502;2023-08-30T15:53:06;962.99;;;17.39;85.93
71565;BME280;59397;50.952;14.502;2023-08-30T16:12:39;962.97;;;16.70;84.34
71565;BME280;59397;50.952;14.502;2023-08-30T16:32:16;962.93;;;17.02;89.37
71565;BME280;59397;50.952;14.502;2023-08-30T16:51:47;962.96;;;16.27;92.56
71565;BME280;59397;50.952;14.502;2023-08-30T17:11:17;963.09;;;15.38;100.00
71565;BME280;59397;50.952;14.502;2023-08-30T17:30:49;963.10;;;14.90;100.00
71565;BME280;59397;50.952;14.502;2023-08-30T17:50:21;963.21;;;14.60;100.00
71565;BME280;59397;50.952;14.502;2023-08-30T18:09:54;963.33;;;14.03;100.00
71565;BME280;59397;50.952;14.502;2023-08-30T18:29:27;963.35;;;14.01;100.00
71565;BME280;59397;50.952;14.502;2023-08-30T18:49:00;963.41;;;13.93;100.00
71565;BME280;59397;50.952;14.502;2023-08-30T19:08:33;963.50;;;13.45;100.00
71565;BME280;59397;50.952;14.502;2023-08-30T19:28:07;963.34;;;13.23;100.00
71565;BME280;59397;50.952;14.502;2023-08-30T19:47:39;963.43;;;13.03;100.00
71565;BME280;59397;50.952;14.502;2023-08-30T20:07:10;963.43;;;12.11;100.00
71565;BME280;59397;50.952;14.502;2023-08-30T20:26:44;963.40;;;11.87;100.00
71565;BME280;59397;50.952;14.502;2023-08-30T20:46:15;963.49;;;11.05;100.00
71565;BME280;59397;50.952;14.502;2023-08-30T21:05:47;963.42;;;10.63;100.00
71565;BME280;59397;50.952;14.502;2023-08-30T21:25:18;963.46;;;10.08;100.00
71565;BME280;59397;50.952;14.502;2023-08-30T21:44:52;963.43;;;9.91;100.00
71565;BME280;59397;50.952;14.502;2023-08-30T22:04:25;963.60;;;9.45;100.00
71565;BME280;59397;50.952;14.502;2023-08-30T22:23:59;963.48;;;9.24;100.00
71565;BME280;59397;50.952;14.502;2023-08-30T22:43:33;963.45;;;8.83;100.00
71565;BME280;59397;50.952;14.502;2023-08-30T23:03:08;963.44;;;9.09;100.00
71565;BME280;59397;50.952;14.502;2023-08-30T23:22:43;963.50;;;9.30;100.00
71565;BME280;59397;50.952;14.502;2023-08-30T23:42:15;963.43;;;9.06;100.00
